Corsa — V2PZ2 — position and weather

sailwx.info

Track history (hours):
 
Tides and Currents Weather Stations Pressure Air Temp Water Temp Dewpoint Dewpoint Depression Visibility Wind Speed Wind Dir Waves Ship Positions

Corsa

Last reported at 2014-Sep-14 18:17 UTC. Time now 2014-Sep-17 17:34 UTC.
Position N 39°03' E 025°54'.

Length 101 m; draft 6.3 m.

Type: Cargo ship. MMSI: 304624000.

Date/timePositionNaut miles runAvg speedWind from/ knotsBaromVisibWave heightAir tempDewpointWater temp
2014-Sep-14 18:17N 39°03' E 025°54'1911.1
2014-Sep-14 16:33N 39°21' E 025°46'16410.9
2014-Sep-14 01:33N 40°53' E 028°43'38 7.5
2014-Sep-13 20:31N 41°22' E 029°15'1 0.7
2014-Sep-13 19:29N 41°23' E 029°16'1 0.7
2014-Sep-13 18:31N 41°24' E 029°16'257 5.6
2014-Sep-11 20:34N 44°44' E 032°56'5511.0
2014-Sep-11 15:33N 44°18' E 034°05'1211.8
2014-Sep-11 14:33N 44°18' E 034°21'1211.9
2014-Sep-11 13:33N 44°19' E 034°38'1312.8
2014-Sep-11 12:34N 44°20' E 034°55'10112.6
2014-Sep-11 04:30N 44°29' E 037°17'1212.4
2014-Sep-11 03:34N 44°31' E 037°33'1212.0
2014-Sep-11 02:34N 44°37' E 037°47'7 6.6
2014-Sep-11 01:33N 44°43' E 037°49'0 0.0
2014-Sep-11 00:33N 44°43' E 037°49'0 0.0
2014-Sep-10 23:33N 44°43' E 037°49'0 0.0
2014-Sep-10 22:33N 44°43' E 037°49'0 0.0
2014-Sep-10 21:33N 44°43' E 037°49'0 0.0
2014-Sep-10 20:33N 44°43' E 037°49'0 0.0
2014-Sep-10 19:33N 44°43' E 037°49'0 0.0
2014-Sep-10 18:33N 44°43' E 037°49'0 0.0
2014-Sep-10 17:33N 44°43' E 037°49'0 0.0
2014-Sep-10 16:33N 44°43' E 037°49'0 0.0
2014-Sep-10 15:33N 44°43' E 037°49'0 0.0
2014-Sep-10 14:33N 44°43' E 037°49'0 0.0
2014-Sep-10 13:33N 44°43' E 037°49'0 0.0
2014-Sep-10 12:33N 44°43' E 037°49'0 0.0
2014-Sep-10 11:33N 44°43' E 037°49'0 0.0
2014-Sep-10 10:33N 44°43' E 037°49'0 0.0
2014-Sep-10 09:33N 44°43' E 037°49'0 0.0
2014-Sep-10 08:33N 44°43' E 037°49'0 0.0
2014-Sep-10 07:33N 44°43' E 037°49'0 0.0
2014-Sep-10 06:33N 44°43' E 037°49'0 0.0
2014-Sep-10 05:33N 44°43' E 037°49'0 0.0
2014-Sep-10 04:33N 44°43' E 037°49'6 5.7
2014-Sep-10 03:34N 44°38' E 037°52'7 7.2
2014-Sep-10 02:34N 44°31' E 037°50'5 4.8
2014-Sep-10 01:33N 44°26' E 037°48'7 7.2
2014-Sep-10 00:34N 44°28' E 037°38'39611.5
2014-Sep-08 14:06N 41°24' E 029°39'712.2
2014-Sep-08 13:34N 41°21' E 029°31'  
2014-Sep-05 21:25N 39°56' E 025°57'  
Track history (hours):
 
Tides and Currents Weather Stations Pressure Air Temp Water Temp Dewpoint Dewpoint Depression Visibility Wind Speed Wind Dir Waves Ship Positions

Corsa

Last reported at 2014-Sep-14 18:17 UTC. Time now 2014-Sep-17 17:34 UTC.
Position N 39°03' E 025°54'.

Length 101 m; draft 6.3 m.

Type: Cargo ship. MMSI: 304624000.

Date/timePositionNaut miles runAvg speedWind from/ knotsBaromVisibWave heightAir tempDewpointWater temp
2014-Sep-14 18:17N 39°03' E 025°54'1911.1
2014-Sep-14 16:33N 39°21' E 025°46'16410.9
2014-Sep-14 01:33N 40°53' E 028°43'38 7.5
2014-Sep-13 20:31N 41°22' E 029°15'1 0.7
2014-Sep-13 19:29N 41°23' E 029°16'1 0.7
2014-Sep-13 18:31N 41°24' E 029°16'257 5.6
2014-Sep-11 20:34N 44°44' E 032°56'5511.0
2014-Sep-11 15:33N 44°18' E 034°05'1211.8
2014-Sep-11 14:33N 44°18' E 034°21'1211.9
2014-Sep-11 13:33N 44°19' E 034°38'1312.8
2014-Sep-11 12:34N 44°20' E 034°55'10112.6
2014-Sep-11 04:30N 44°29' E 037°17'1212.4
2014-Sep-11 03:34N 44°31' E 037°33'1212.0
2014-Sep-11 02:34N 44°37' E 037°47'7 6.6
2014-Sep-11 01:33N 44°43' E 037°49'0 0.0
2014-Sep-11 00:33N 44°43' E 037°49'0 0.0
2014-Sep-10 23:33N 44°43' E 037°49'0 0.0
2014-Sep-10 22:33N 44°43' E 037°49'0 0.0
2014-Sep-10 21:33N 44°43' E 037°49'0 0.0
2014-Sep-10 20:33N 44°43' E 037°49'0 0.0
2014-Sep-10 19:33N 44°43' E 037°49'0 0.0
2014-Sep-10 18:33N 44°43' E 037°49'0 0.0
2014-Sep-10 17:33N 44°43' E 037°49'0 0.0
2014-Sep-10 16:33N 44°43' E 037°49'0 0.0
2014-Sep-10 15:33N 44°43' E 037°49'0 0.0
2014-Sep-10 14:33N 44°43' E 037°49'0 0.0
2014-Sep-10 13:33N 44°43' E 037°49'0 0.0
2014-Sep-10 12:33N 44°43' E 037°49'0 0.0
2014-Sep-10 11:33N 44°43' E 037°49'0 0.0
2014-Sep-10 10:33N 44°43' E 037°49'0 0.0
2014-Sep-10 09:33N 44°43' E 037°49'0 0.0
2014-Sep-10 08:33N 44°43' E 037°49'0 0.0
2014-Sep-10 07:33N 44°43' E 037°49'0 0.0
2014-Sep-10 06:33N 44°43' E 037°49'0 0.0
2014-Sep-10 05:33N 44°43' E 037°49'0 0.0
2014-Sep-10 04:33N 44°43' E 037°49'6 5.7
2014-Sep-10 03:34N 44°38' E 037°52'7 7.2
2014-Sep-10 02:34N 44°31' E 037°50'5 4.8
2014-Sep-10 01:33N 44°26' E 037°48'7 7.2
2014-Sep-10 00:34N 44°28' E 037°38'39611.5
2014-Sep-08 14:06N 41°24' E 029°39'712.2
2014-Sep-08 13:34N 41°21' E 029°31'  
2014-Sep-05 21:25N 39°56' E 025°57'  

Dump ship's entire track history